createdAt,value
2018-11-04T00:00:58.072Z,12.27
2018-11-04T00:03:27.623Z,138.90
2018-11-04T00:05:57.135Z,82.57
2018-11-04T00:08:26.471Z,16.63
2018-11-04T00:10:55.968Z,19.90
2018-11-04T00:13:25.569Z,25.17
2018-11-04T00:15:54.931Z,30.80
2018-11-04T00:18:24.263Z,36.00
2018-11-04T00:20:53.778Z,47.20
2018-11-04T00:23:23.653Z,47.03
2018-11-04T00:25:52.987Z,41.93
2018-11-04T00:28:22.355Z,37.33
2018-11-04T00:30:51.760Z,56.77
2018-11-04T00:33:21.168Z,84.10
2018-11-04T00:35:50.595Z,53.43
2018-11-04T00:38:19.895Z,76.10
2018-11-04T00:40:49.360Z,44.37
2018-11-04T00:43:18.743Z,65.60
2018-11-04T00:45:48.259Z,52.73
2018-11-04T00:48:17.610Z,39.93
2018-11-04T00:50:47.315Z,37.23
2018-11-04T00:53:16.782Z,60.67
2018-11-04T00:55:48.100Z,61.53
2018-11-04T00:58:17.743Z,55.20
2018-11-04T01:00:47.129Z,50.67
2018-11-04T01:03:16.611Z,92.90
2018-11-04T01:05:46.167Z,47.90
2018-11-04T01:08:15.795Z,44.17
2018-11-04T01:10:45.251Z,46.87
2018-11-04T01:13:14.596Z,74.10
2018-11-04T01:15:43.934Z,61.43
2018-11-04T01:18:13.615Z,35.33
2018-11-04T01:20:43.148Z,51.90
2018-11-04T01:23:12.688Z,51.77
2018-11-04T01:25:42.239Z,44.27
2018-11-04T01:28:11.739Z,63.47
2018-11-04T01:30:41.316Z,63.20
2018-11-04T01:33:10.831Z,54.57
2018-11-04T01:35:40.327Z,52.60
2018-11-04T01:38:09.855Z,47.15
2018-11-04T01:40:39.306Z,60.80
2018-11-04T01:43:08.811Z,51.30
2018-11-04T01:45:38.223Z,56.57
2018-11-04T01:48:08.023Z,50.70
2018-11-04T01:50:37.418Z,67.58
2018-11-04T01:53:07.311Z,65.77
2018-11-04T01:55:36.950Z,42.90
2018-11-04T01:58:06.456Z,40.83
2018-11-04T02:00:36.284Z,64.20
2018-11-04T02:03:06.195Z,55.00
2018-11-04T02:05:35.731Z,35.08
2018-11-04T02:08:05.414Z,57.17
2018-11-04T02:10:34.967Z,33.48
2018-11-04T02:13:04.328Z,29.40
2018-11-04T02:15:33.687Z,28.50
2018-11-04T02:18:03.538Z,43.30
2018-11-04T02:20:33.095Z,33.03
2018-11-04T02:23:02.524Z,13.77
2018-11-04T02:25:31.866Z,64.80
2018-11-04T02:28:01.337Z,50.00
2018-11-04T02:30:30.735Z,29.12
2018-11-04T02:33:00.107Z,49.07
2018-11-04T02:35:29.639Z,38.80
2018-11-04T02:37:59.156Z,43.90
2018-11-04T02:40:28.710Z,50.27
2018-11-04T02:42:58.056Z,69.30
2018-11-04T02:45:27.407Z,88.87
2018-11-04T02:47:56.907Z,30.57
2018-11-04T02:50:26.391Z,63.07
2018-11-04T02:52:56.111Z,72.47
2018-11-04T02:55:25.462Z,98.00
2018-11-04T02:57:54.787Z,129.40
2018-11-04T03:00:24.171Z,70.53
2018-11-04T03:02:53.583Z,82.37
2018-11-04T03:05:23.959Z,67.23
2018-11-04T03:07:54.015Z,75.57
2018-11-04T03:10:23.913Z,75.30
2018-11-04T03:13:00.080Z,76.83
2018-11-04T03:15:29.560Z,68.40
2018-11-04T03:17:59.039Z,80.07
2018-11-04T03:20:28.543Z,52.08
2018-11-04T03:22:57.913Z,66.67
2018-11-04T03:25:27.271Z,58.37
2018-11-04T03:27:56.758Z,76.50
2018-11-04T03:30:26.292Z,62.33
2018-11-04T03:32:55.568Z,64.13
2018-11-04T03:35:25.084Z,49.03
2018-11-04T03:37:54.435Z,67.40
2018-11-04T03:40:24.027Z,76.10
2018-11-04T03:42:53.400Z,71.27
2018-11-04T03:45:22.831Z,36.37
2018-11-04T03:47:52.331Z,63.07
2018-11-04T03:50:21.891Z,83.30
2018-11-04T03:52:51.238Z,53.33
2018-11-04T03:55:20.602Z,63.67
2018-11-04T03:57:50.129Z,62.37
2018-11-04T04:00:19.635Z,49.70
2018-11-04T04:02:49.023Z,56.53
2018-11-04T04:05:18.564Z,54.60
2018-11-04T04:07:48.046Z,45.40
2018-11-04T04:10:17.564Z,50.80
2018-11-04T04:12:46.895Z,55.47
2018-11-04T04:15:16.411Z,38.13
2018-11-04T04:17:45.831Z,54.50
2018-11-04T04:20:15.263Z,19.57
2018-11-04T04:22:44.571Z,34.30
2018-11-04T04:25:14.023Z,31.50
2018-11-04T04:27:43.468Z,39.70
2018-11-04T04:30:13.021Z,36.03
2018-11-04T04:32:42.361Z,27.73
2018-11-04T04:35:11.920Z,17.53
2018-11-04T04:37:41.984Z,40.10
2018-11-04T04:40:11.528Z,25.20
2018-11-04T04:42:40.838Z,56.45
2018-11-04T04:45:10.166Z,32.10
2018-11-04T04:47:39.562Z,54.00
2018-11-04T04:50:09.143Z,33.43
2018-11-04T04:52:38.511Z,48.63
2018-11-04T04:55:07.871Z,51.10
2018-11-04T04:57:37.214Z,40.38
2018-11-04T05:00:07.283Z,39.47
2018-11-04T05:02:36.832Z,57.30
2018-11-04T05:05:06.887Z,19.80
2018-11-04T05:07:36.254Z,39.30
2018-11-04T05:10:06.235Z,33.17
2018-11-04T05:12:35.694Z,27.93
2018-11-04T05:15:06.004Z,29.67
2018-11-04T05:17:35.425Z,29.00
2018-11-04T05:20:05.094Z,44.10
2018-11-04T05:22:34.634Z,35.40
2018-11-04T05:25:04.163Z,19.83
2018-11-04T05:27:33.667Z,34.08
2018-11-04T05:30:03.179Z,45.23
2018-11-04T05:32:32.599Z,30.62
2018-11-04T05:35:01.950Z,43.67
2018-11-04T05:37:31.483Z,43.28
2018-11-04T05:40:01.027Z,36.27
2018-11-04T05:42:30.426Z,22.97
2018-11-04T05:44:59.875Z,49.73
2018-11-04T05:47:29.262Z,44.57
2018-11-04T05:49:58.747Z,33.40
2018-11-04T05:52:28.258Z,37.83
2018-11-04T05:54:57.604Z,74.73
2018-11-04T05:57:27.139Z,21.90
2018-11-04T05:59:56.455Z,36.23
2018-11-04T06:02:25.851Z,41.03
2018-11-04T06:04:55.165Z,38.73
2018-11-04T06:07:24.624Z,25.90
2018-11-04T06:09:54.010Z,48.50
2018-11-04T06:12:24.275Z,53.87
2018-11-04T06:14:53.986Z,52.77
2018-11-04T06:17:24.450Z,30.03
2018-11-04T06:19:53.938Z,28.30
2018-11-04T06:22:24.366Z,56.47
2018-11-04T06:24:53.863Z,55.97
2018-11-04T06:27:23.215Z,66.20
2018-11-04T06:29:52.584Z,43.13
2018-11-04T06:32:22.059Z,59.03
2018-11-04T06:34:51.489Z,23.73
2018-11-04T06:37:20.909Z,22.50
2018-11-04T06:39:50.422Z,30.23
2018-11-04T06:42:19.843Z,30.83
2018-11-04T06:44:49.190Z,7.17
2018-11-04T06:47:18.711Z,33.93
2018-11-04T06:49:48.259Z,18.93
2018-11-04T06:52:17.767Z,31.23
2018-11-04T06:54:47.259Z,37.97
2018-11-04T06:57:16.762Z,29.03
2018-11-04T06:59:46.362Z,30.10
2018-11-04T07:02:15.667Z,40.87
2018-11-04T07:04:44.960Z,38.00
2018-11-04T07:07:14.463Z,45.60
2018-11-04T07:09:43.951Z,31.93
2018-11-04T07:12:13.363Z,18.60
2018-11-04T07:14:42.947Z,26.97
2018-11-04T07:17:12.439Z,22.00
2018-11-04T07:19:41.963Z,39.30
2018-11-04T07:22:11.523Z,28.03
2018-11-04T07:24:40.897Z,24.82
2018-11-04T07:27:10.309Z,16.27
2018-11-04T07:29:39.782Z,22.32
2018-11-04T07:32:09.654Z,18.47
2018-11-04T07:34:39.116Z,20.53
2018-11-04T07:37:08.826Z,22.67
2018-11-04T07:39:38.335Z,20.77
2018-11-04T07:42:07.932Z,16.10
2018-11-04T07:44:37.412Z,29.30
2018-11-04T07:47:06.766Z,12.37
2018-11-04T07:49:36.263Z,26.35
2018-11-04T07:52:05.675Z,13.07
2018-11-04T07:54:35.193Z,26.77
2018-11-04T07:57:04.926Z,18.53
2018-11-04T07:59:34.289Z,21.12
2018-11-04T08:02:03.843Z,23.53
2018-11-04T08:04:33.120Z,24.18
2018-11-04T08:07:02.635Z,24.77
2018-11-04T08:09:31.966Z,22.53
2018-11-04T08:12:01.359Z,27.97
2018-11-04T08:14:30.767Z,30.12
2018-11-04T08:17:00.345Z,31.07
2018-11-04T08:19:29.883Z,22.80
2018-11-04T08:21:59.218Z,33.40
2018-11-04T08:24:28.835Z,34.08
2018-11-04T08:26:58.403Z,38.90
2018-11-04T08:29:27.935Z,29.63
2018-11-04T08:31:57.307Z,22.77
2018-11-04T08:34:26.815Z,30.83
2018-11-04T08:36:56.167Z,49.90
2018-11-04T08:39:25.678Z,12.97
2018-11-04T08:41:55.059Z,16.50
2018-11-04T08:44:24.758Z,10.73
2018-11-04T08:46:54.279Z,6.00
2018-11-04T08:49:24.571Z,3.80
2018-11-04T08:51:53.883Z,8.37
2018-11-04T08:54:24.575Z,5.73
2018-11-04T08:56:54.219Z,2.33
2018-11-04T08:59:24.759Z,3.57
2018-11-04T09:01:54.283Z,2.67
2018-11-04T09:04:23.638Z,4.30
2018-11-04T09:06:53.145Z,3.40
2018-11-04T09:09:22.471Z,6.43
2018-11-04T09:11:51.894Z,5.28
2018-11-04T09:14:21.540Z,5.60
2018-11-04T09:16:51.075Z,6.20
2018-11-04T09:19:20.431Z,3.33
2018-11-04T09:24:17.565Z,2.37
2018-11-04T09:26:47.050Z,3.87
2018-11-04T09:29:16.598Z,5.77
2018-11-04T09:31:46.248Z,7.40
2018-11-04T09:34:15.588Z,3.00
2018-11-04T09:36:44.995Z,5.17
2018-11-04T09:39:14.488Z,4.13
2018-11-04T09:41:43.835Z,2.42
2018-11-04T09:44:13.447Z,4.03
2018-11-04T09:46:42.803Z,2.98
2018-11-04T09:49:12.175Z,5.53
2018-11-04T09:51:41.484Z,4.33
2018-11-04T09:54:10.880Z,7.10
2018-11-04T09:56:40.276Z,6.15
2018-11-04T09:59:09.727Z,3.30
2018-11-04T10:01:39.208Z,6.05
2018-11-04T10:04:08.699Z,6.17
2018-11-04T10:06:38.291Z,5.33
2018-11-04T10:09:08.866Z,7.27
2018-11-04T10:11:38.231Z,7.77
2018-11-04T10:14:07.919Z,4.40
2018-11-04T10:16:37.751Z,7.70
2018-11-04T10:19:07.371Z,9.43
2018-11-04T10:21:36.595Z,5.47
2018-11-04T10:24:06.164Z,6.33
2018-11-04T10:26:35.621Z,4.92
2018-11-04T10:29:05.421Z,6.80
2018-11-04T10:31:35.760Z,6.10
2018-11-04T10:34:05.547Z,7.23
2018-11-04T10:36:35.059Z,5.80
2018-11-04T10:39:07.196Z,6.07
2018-11-04T10:41:36.533Z,3.87
2018-11-04T10:44:06.407Z,6.60
2018-11-04T10:46:35.801Z,6.00
2018-11-04T10:49:05.595Z,4.33
2018-11-04T10:51:34.996Z,4.40
2018-11-04T10:54:04.385Z,7.17
2018-11-04T10:56:33.708Z,7.78
2018-11-04T10:59:03.116Z,6.97
2018-11-04T11:01:32.684Z,6.13
2018-11-04T11:04:02.099Z,6.93
2018-11-04T11:06:31.471Z,5.17
2018-11-04T11:09:01.024Z,6.90
2018-11-04T11:11:30.546Z,3.90
2018-11-04T11:13:59.894Z,5.23
2018-11-04T11:16:29.408Z,6.53
2018-11-04T11:18:58.927Z,5.67
2018-11-04T11:21:28.458Z,7.80
2018-11-04T11:23:57.881Z,7.23
2018-11-04T11:26:27.476Z,6.43
2018-11-04T11:28:56.948Z,8.80
2018-11-04T11:31:26.507Z,9.43
2018-11-04T11:33:55.941Z,7.90
2018-11-04T11:36:25.467Z,8.30
2018-11-04T11:38:54.995Z,5.97
2018-11-04T11:41:25.115Z,4.03
2018-11-04T11:43:54.671Z,8.80
2018-11-04T11:46:25.215Z,11.90
2018-11-04T11:48:54.595Z,11.07
2018-11-04T11:51:24.008Z,7.13
2018-11-04T11:53:53.538Z,6.93
2018-11-04T11:56:23.055Z,6.97
2018-11-04T11:58:52.475Z,7.77
2018-11-04T12:01:21.799Z,10.13
2018-11-04T12:03:51.199Z,5.20
2018-11-04T12:06:20.555Z,5.90
2018-11-04T12:08:50.072Z,6.60
2018-11-04T12:11:19.491Z,6.07
2018-11-04T12:13:49.021Z,8.37
2018-11-04T12:16:18.396Z,4.97
2018-11-04T12:18:47.784Z,5.90
2018-11-04T12:21:17.228Z,7.33
2018-11-04T12:23:46.718Z,7.13
2018-11-04T12:26:16.016Z,7.57
2018-11-04T12:28:45.536Z,7.40
2018-11-04T12:31:14.888Z,6.13
2018-11-04T12:33:44.238Z,4.80
2018-11-04T12:36:13.755Z,4.80
2018-11-04T12:38:43.278Z,6.13
2018-11-04T12:41:12.807Z,6.83
2018-11-04T12:43:42.163Z,5.00
2018-11-04T12:46:11.703Z,7.13
2018-11-04T12:48:41.205Z,6.23
2018-11-04T12:51:10.760Z,5.27
2018-11-04T12:53:40.068Z,4.72
2018-11-04T12:56:09.456Z,8.53
2018-11-04T12:58:38.791Z,4.67
2018-11-04T13:01:08.117Z,5.57
2018-11-04T13:03:37.730Z,5.20
2018-11-04T13:06:07.055Z,3.37
2018-11-04T13:08:36.363Z,6.93
2018-11-04T13:11:06.330Z,7.13
2018-11-04T13:13:35.685Z,6.23
2018-11-04T13:16:05.078Z,5.47
2018-11-04T13:18:34.567Z,6.53
2018-11-04T13:21:04.081Z,7.90
2018-11-04T13:23:33.479Z,9.13
2018-11-04T13:26:04.556Z,7.60
2018-11-04T13:28:33.947Z,12.57
2018-11-04T13:31:03.484Z,6.33
2018-11-04T13:33:32.951Z,7.13
2018-11-04T13:36:02.303Z,10.37
2018-11-04T13:38:31.830Z,13.77
2018-11-04T13:41:01.171Z,8.00
2018-11-04T13:43:30.685Z,8.80
2018-11-04T13:46:00.506Z,6.83
2018-11-04T13:48:30.283Z,8.03
2018-11-04T13:50:59.811Z,5.83
2018-11-04T13:53:29.233Z,6.33
2018-11-04T13:55:58.723Z,6.03
2018-11-04T13:58:28.207Z,7.83
2018-11-04T14:00:57.624Z,6.33
2018-11-04T14:03:27.205Z,8.20
2018-11-04T14:05:56.747Z,8.80
2018-11-04T14:08:26.194Z,7.20
2018-11-04T14:10:55.739Z,7.63
2018-11-04T14:13:25.523Z,5.17
2018-11-04T14:15:54.911Z,6.17
2018-11-04T14:18:24.275Z,8.03
2018-11-04T14:20:53.787Z,9.13
2018-11-04T14:23:23.291Z,4.73
2018-11-04T14:25:52.638Z,12.00
2018-11-04T14:28:23.772Z,7.00
2018-11-04T14:30:53.289Z,7.13
2018-11-04T14:33:22.639Z,9.17
2018-11-04T14:35:52.109Z,7.13
2018-11-04T14:38:21.563Z,7.60
2018-11-04T14:40:50.899Z,4.30
2018-11-04T14:43:20.231Z,8.93
2018-11-04T14:45:49.831Z,11.30
2018-11-04T14:48:19.207Z,8.90
2018-11-04T14:50:48.559Z,9.95
2018-11-04T14:53:17.921Z,7.17
2018-11-04T14:55:47.432Z,7.60
2018-11-04T14:58:16.772Z,7.20
2018-11-04T15:00:46.274Z,10.93
2018-11-04T15:03:15.694Z,8.20
2018-11-04T15:05:45.311Z,7.13
2018-11-04T15:08:14.747Z,9.80
2018-11-04T15:10:44.171Z,5.63
2018-11-04T15:13:13.817Z,8.83
2018-11-04T15:15:43.232Z,10.20
2018-11-04T15:18:12.607Z,7.37
2018-11-04T15:20:42.168Z,8.97
2018-11-04T15:23:11.775Z,6.42
2018-11-04T15:25:41.569Z,8.83
2018-11-04T15:28:11.154Z,8.70
2018-11-04T15:30:40.718Z,6.83
2018-11-04T15:33:10.273Z,8.23
2018-11-04T15:35:39.782Z,7.17
2018-11-04T15:38:09.326Z,7.03
2018-11-04T15:40:39.149Z,9.17
2018-11-04T15:43:08.610Z,7.73
2018-11-04T15:45:38.011Z,9.37
2018-11-04T15:48:07.524Z,6.00
2018-11-04T15:50:36.966Z,14.63
2018-11-04T15:53:06.423Z,9.20
2018-11-04T15:55:36.451Z,8.80
2018-11-04T15:58:06.314Z,6.97
2018-11-04T16:00:36.419Z,15.58
2018-11-04T16:03:06.293Z,10.43
2018-11-04T16:05:35.873Z,8.20
2018-11-04T16:08:06.044Z,7.67
2018-11-04T16:10:35.584Z,8.33
2018-11-04T16:13:05.069Z,10.20
2018-11-04T16:15:34.448Z,12.20
2018-11-04T16:18:04.123Z,11.77
2018-11-04T16:20:33.683Z,7.10
2018-11-04T16:23:03.176Z,8.77
2018-11-04T16:25:32.641Z,11.53
2018-11-04T16:28:02.174Z,10.83
2018-11-04T16:30:31.555Z,8.25
2018-11-04T16:33:01.094Z,6.53
2018-11-04T16:35:30.480Z,10.05
2018-11-04T16:37:59.888Z,9.87
2018-11-04T16:40:29.176Z,9.53
2018-11-04T16:42:58.591Z,7.17
2018-11-04T16:45:28.139Z,7.53
2018-11-04T16:47:57.697Z,9.40
2018-11-04T16:50:27.112Z,11.53
2018-11-04T16:52:56.497Z,11.27
2018-11-04T16:55:26.021Z,11.30
2018-11-04T16:57:55.540Z,13.43
2018-11-04T17:00:26.096Z,13.63
2018-11-04T17:02:55.659Z,12.30
2018-11-04T17:05:26.010Z,12.40
2018-11-04T17:07:55.796Z,9.30
2018-11-04T17:10:25.816Z,9.97
2018-11-04T17:12:55.427Z,10.83
2018-11-04T17:15:25.917Z,11.57
2018-11-04T17:17:55.492Z,8.47
2018-11-04T17:20:25.900Z,7.83
2018-11-04T17:22:55.687Z,7.43
2018-11-04T17:25:25.851Z,6.43
2018-11-04T17:27:55.279Z,11.63
2018-11-04T17:30:25.739Z,7.60
2018-11-04T17:32:55.112Z,6.70
2018-11-04T17:35:24.492Z,16.37
2018-11-04T17:37:53.823Z,9.08
2018-11-04T17:40:23.387Z,10.00
2018-11-04T17:42:52.794Z,7.27
2018-11-04T17:45:22.498Z,8.47
2018-11-04T17:47:52.297Z,8.37
2018-11-04T17:50:21.808Z,8.20
2018-11-04T17:52:52.146Z,7.80
2018-11-04T17:55:21.510Z,11.17
2018-11-04T17:57:50.872Z,10.30
2018-11-04T18:00:20.671Z,10.07
2018-11-04T18:02:50.146Z,7.63
2018-11-04T18:05:19.540Z,9.30
2018-11-04T18:07:49.032Z,7.83
2018-11-04T18:10:19.251Z,10.45
2018-11-04T18:12:49.026Z,5.10
2018-11-04T18:15:18.428Z,8.83
2018-11-04T18:17:47.987Z,7.13
2018-11-04T18:20:17.811Z,9.13
2018-11-04T18:22:47.219Z,9.77
2018-11-04T18:25:17.102Z,9.23
2018-11-04T18:27:46.823Z,13.10
2018-11-04T18:30:17.143Z,7.37
2018-11-04T18:32:47.235Z,7.17
2018-11-04T18:35:16.646Z,7.27
2018-11-04T18:37:46.002Z,5.25
2018-11-04T18:40:17.085Z,14.33
2018-11-04T18:42:46.887Z,7.40
2018-11-04T18:45:17.217Z,6.73
2018-11-04T18:47:47.008Z,12.07
2018-11-04T18:50:16.986Z,8.90
2018-11-04T18:52:46.648Z,9.73
2018-11-04T18:55:16.140Z,10.07
2018-11-04T18:57:45.672Z,4.17
2018-11-04T19:00:17.092Z,11.03
2018-11-04T19:02:47.112Z,4.73
2018-11-04T19:05:17.000Z,6.80
2018-11-04T19:07:46.626Z,9.60
2018-11-04T19:10:17.452Z,9.28
2018-11-04T19:12:46.807Z,7.10
2018-11-04T19:15:16.350Z,7.07
2018-11-04T19:17:45.771Z,9.47
2018-11-04T19:20:16.275Z,6.28
2018-11-04T19:22:45.693Z,7.63
2018-11-04T19:25:15.933Z,7.07
2018-11-04T19:27:46.073Z,6.17
2018-11-04T19:30:16.909Z,7.73
2018-11-04T19:32:46.826Z,5.57
2018-11-04T19:35:17.285Z,9.95
2018-11-04T19:37:49.293Z,6.33
2018-11-04T19:40:18.952Z,5.37
2018-11-04T19:42:49.625Z,7.90
2018-11-04T19:45:19.312Z,4.83
2018-11-04T19:47:48.965Z,9.10
2018-11-04T19:50:18.601Z,6.90
2018-11-04T19:52:48.066Z,6.57
2018-11-04T19:55:17.615Z,7.60
2018-11-04T19:57:47.623Z,6.47
2018-11-04T20:00:18.626Z,3.70
2018-11-04T20:02:48.296Z,7.40
2018-11-04T20:05:18.415Z,7.37
2018-11-04T20:07:47.736Z,7.97
2018-11-04T20:10:18.796Z,7.00
2018-11-04T20:12:54.413Z,8.73
2018-11-04T20:15:24.615Z,6.70
2018-11-04T20:17:54.846Z,6.43
2018-11-04T20:20:26.664Z,10.83
2018-11-04T20:22:56.588Z,6.00
2018-11-04T20:25:31.599Z,10.83
2018-11-04T20:28:01.073Z,5.80
2018-11-04T20:30:30.641Z,5.10
2018-11-04T20:33:05.781Z,4.93
2018-11-04T20:35:35.337Z,8.40
2018-11-04T20:38:04.820Z,5.43
2018-11-04T20:40:39.493Z,7.67
2018-11-04T20:43:09.139Z,9.07
2018-11-04T20:45:40.446Z,9.80
2018-11-04T20:48:15.291Z,9.83
2018-11-04T20:50:50.048Z,9.30
2018-11-04T20:53:19.488Z,8.25
2018-11-04T20:55:54.347Z,7.87
2018-11-04T20:58:24.059Z,7.60
2018-11-04T21:00:53.714Z,12.50
2018-11-04T21:03:23.170Z,7.63
2018-11-04T21:05:52.772Z,12.07
2018-11-04T21:08:22.332Z,8.33
2018-11-04T21:10:51.789Z,8.57
2018-11-04T21:13:21.263Z,8.97
2018-11-04T21:15:50.894Z,10.00
2018-11-04T21:18:20.421Z,8.13
2018-11-04T21:20:49.861Z,6.57
2018-11-04T21:23:19.512Z,8.73
2018-11-04T21:25:48.934Z,9.10
2018-11-04T21:28:18.497Z,6.10
2018-11-04T21:30:47.935Z,10.60
2018-11-04T21:33:17.331Z,6.43
2018-11-04T21:35:46.761Z,10.10
2018-11-04T21:38:16.174Z,15.20
2018-11-04T21:40:45.740Z,8.20
2018-11-04T21:43:15.299Z,8.53
2018-11-04T21:45:44.576Z,10.27
2018-11-04T21:48:15.104Z,7.80
2018-11-04T21:50:44.585Z,8.90
2018-11-04T21:53:14.172Z,7.03
2018-11-04T21:55:43.912Z,7.62
2018-11-04T21:58:14.551Z,9.27
2018-11-04T22:00:44.128Z,12.10
2018-11-04T22:03:13.655Z,13.30
2018-11-04T22:05:43.037Z,11.70
2018-11-04T22:08:12.463Z,11.87
2018-11-04T22:10:42.100Z,10.93
2018-11-04T22:13:11.639Z,10.67
2018-11-04T22:15:41.547Z,17.77
2018-11-04T22:18:11.035Z,14.63
2018-11-04T22:20:40.759Z,15.47
2018-11-04T22:23:10.244Z,11.33
2018-11-04T22:25:39.775Z,10.67
2018-11-04T22:28:09.296Z,12.10
2018-11-04T22:30:38.867Z,14.00
2018-11-04T22:33:08.412Z,12.50
2018-11-04T22:35:37.907Z,13.37
2018-11-04T22:38:07.343Z,17.20
2018-11-04T22:40:37.234Z,12.45
2018-11-04T22:43:06.848Z,15.20
2018-11-04T22:45:36.226Z,12.23
2018-11-04T22:48:06.464Z,17.30
2018-11-04T22:50:37.963Z,16.30
2018-11-04T22:53:07.915Z,13.53
2018-11-04T22:55:37.315Z,15.10
2018-11-04T22:58:07.895Z,18.97
2018-11-04T23:00:41.147Z,11.53
2018-11-04T23:03:11.216Z,22.47
2018-11-04T23:05:40.611Z,22.27
2018-11-04T23:08:10.547Z,22.17
2018-11-04T23:10:46.417Z,20.93
2018-11-04T23:13:16.003Z,20.23
2018-11-04T23:15:45.524Z,25.33
2018-11-04T23:18:14.969Z,20.40
2018-11-04T23:20:45.767Z,22.53
2018-11-04T23:23:15.313Z,15.83
2018-11-04T23:25:44.679Z,18.10
2018-11-04T23:28:14.146Z,27.00
2018-11-04T23:30:43.559Z,20.80
2018-11-04T23:33:13.076Z,25.30
2018-11-04T23:35:42.471Z,21.27
2018-11-04T23:38:11.865Z,25.43
2018-11-04T23:40:41.235Z,32.33
2018-11-04T23:43:10.807Z,23.47
2018-11-04T23:45:40.243Z,24.80
2018-11-04T23:48:09.748Z,29.35
2018-11-04T23:50:39.168Z,34.33
2018-11-04T23:53:09.809Z,28.37
2018-11-04T23:55:39.165Z,26.13
2018-11-04T23:58:10.643Z,27.20
